New Church, Virginia
Current Conditions -  °F | °C
As of 5:54 AM on Wednesday 22 Oct 2014 (Local Time) from KWAL Reporting Station
Haze Haze  
Wind Chill: 56°   Ceiling: 600
Heat Index: 56°   Visibility: 4mi
Dew Point: 54°   Wind: 5mph
Humidity: 93%   Direction: 320°NW
Pressure: 29.81"   Gusts: NA
Location:  37.98°N, 75.53°W
Report Text: KWAL 220954Z AUTO 32004KT 4SM BR OVC006 13/12 A2981 RMK AO2 SLP093 T01330122
Loading
Personal Weather Stations






























Interactive Weather Map
Tropical Storm Tracking
New forecast layout! Learn more

10-Day Weather Forecast

Advertisements
Track Severe Weather on mobile